Time;durP1;ratioP1;P1;durP2;ratioP2;P2;SDS_P1;SDS_P2;PMS_P1;PMS_P2;Temp;Humidity;BMP_temperature;BMP_pressure;BME280_temperature;BME280_humidity;BME280_pressure;Samples;Min_cycle;Max_cycle;Signal;HPM_P1;HPM_P2
2023/10/07 00:00:25;;;;;;;8.23;4.53;;;;;;;15.01;83.12;99684.34;5035418;28;20468;-89
2023/10/07 00:02:51;;;;;;;6.75;3.83;;;;;;;15.03;82.91;99684.25;5035913;28;20028;-88
2023/10/07 00:05:16;;;;;;;6.57;4.45;;;;;;;14.98;82.98;99666.19;5035933;28;20033;-89
2023/10/07 00:07:46;;;;;;;4.68;3.42;;;;;;;15.12;82.81;99681.84;5054007;28;20085;-89
2023/10/07 00:10:15;;;;;;;8.05;4.25;;;;;;;15.21;82.72;99697.03;5032059;28;20049;-88
2023/10/07 00:12:42;;;;;;;4.97;3.60;;;;;;;15.15;82.57;99668.56;5033662;28;20021;-88
2023/10/07 00:15:11;;;;;;;10.02;4.90;;;;;;;15.32;82.47;99691.06;5032209;28;20060;-88
2023/10/07 00:17:43;;;;;;;7.10;4.25;;;;;;;15.31;82.37;99694.63;5015969;28;20362;-88
2023/10/07 00:20:12;;;;;;;6.82;3.85;;;;;;;15.23;82.60;99658.41;5015730;28;20476;-88
2023/10/07 00:22:47;;;;;;;7.80;4.70;;;;;;;15.33;82.49;99673.53;5015784;28;20032;-89
2023/10/07 00:25:15;;;;;;;6.05;4.30;;;;;;;15.41;82.71;99676.50;5015503;28;20133;-88
2023/10/07 00:27:41;;;;;;;6.68;3.97;;;;;;;15.29;82.69;99665.00;5015642;28;20384;-89
2023/10/07 00:30:16;;;;;;;6.97;4.60;;;;;;;15.44;83.17;99686.81;5033059;28;20037;-89
2023/10/07 00:32:45;;;;;;;7.25;3.97;;;;;;;15.40;82.89;99680.91;5015713;28;20433;-88
2023/10/07 00:35:11;;;;;;;6.20;4.20;;;;;;;15.20;82.85;99647.25;5015302;28;20041;-89
2023/10/07 00:37:46;;;;;;;5.80;3.70;;;;;;;15.44;82.98;99679.75;5015568;28;20032;-89
2023/10/07 00:40:24;;;;;;;7.28;4.20;;;;;;;15.32;83.09;99659.56;5015046;28;20485;-89
2023/10/07 00:42:51;;;;;;;7.10;3.97;;;;;;;15.31;83.01;99659.69;5015614;28;20091;-89
2023/10/07 00:45:16;;;;;;;6.47;3.42;;;;;;;15.26;83.00;99639.00;5015263;28;20044;-89
2023/10/07 00:47:46;;;;;;;4.60;3.38;;;;;;;15.45;83.11;99672.72;5015306;28;20036;-88
2023/10/07 00:50:12;;;;;;;4.10;2.90;;;;;;;15.46;83.41;99672.66;5015040;28;20051;-88
2023/10/07 00:52:55;;;;;;;7.53;4.00;;;;;;;15.42;83.11;99638.81;5015125;28;20484;-89
2023/10/07 00:55:30;;;;;;;7.25;3.67;;;;;;;15.48;82.95;99641.03;5015114;28;20041;-88
2023/10/07 00:58:17;;;;;;;5.20;3.35;;;;;;;15.23;82.94;99594.59;5032838;28;20072;-89
2023/10/07 01:00:47;;;;;;;6.55;4.35;;;;;;;15.54;83.11;99637.97;5015132;28;20099;-89
2023/10/07 01:03:23;;;;;;;5.22;3.63;;;;;;;15.41;83.02;99616.97;5014686;28;20069;-88
2023/10/07 01:08:29;;;;;;;5.78;3.28;;;;;;;15.58;83.21;99622.88;5037686;28;20056;-89
2023/10/07 01:11:06;;;;;;;4.78;3.85;;;;;;;15.38;83.23;99590.94;5034102;28;20040;-89
2023/10/07 01:13:35;;;;;;;6.30;3.60;;;;;;;15.55;83.04;99609.94;5034545;28;20041;-89
2023/10/07 01:16:06;;;;;;;6.50;3.80;;;;;;;15.62;83.44;99621.72;5052147;28;20032;-89
2023/10/07 01:18:37;;;;;;;4.75;3.47;;;;;;;15.47;83.45;99595.56;5034655;28;20040;-89
2023/10/07 01:21:06;;;;;;;;;;;;;;;15.63;83.33;99624.25;5034764;28;20036;-89
2023/10/07 01:23:34;;;;;;;6.68;3.63;;;;;;;15.26;83.65;99552.41;5034523;28;20007;-89
2023/10/07 01:26:14;;;;;;;5.15;3.17;;;;;;;15.56;83.69;99586.22;5034258;28;20523;-88
2023/10/07 01:28:40;;;;;;;6.20;3.75;;;;;;;15.55;83.59;99588.94;5034541;28;20028;-88
2023/10/07 01:31:10;;;;;;;6.43;3.60;;;;;;;15.45;83.69;99565.13;5034231;28;20504;-88
2023/10/07 01:33:46;;;;;;;4.95;3.00;;;;;;;15.64;83.70;99583.09;5052165;28;20025;-88
2023/10/07 01:36:19;;;;;;;6.45;3.50;;;;;;;15.68;83.91;99592.47;5034081;28;20033;-88
2023/10/07 01:38:50;;;;;;;6.00;3.53;;;;;;;15.48;83.79;99550.00;5034051;28;20025;-89
2023/10/07 01:41:19;;;;;;;7.35;3.83;;;;;;;15.73;83.92;99605.28;5034006;28;20033;-89
2023/10/07 01:43:57;;;;;;;7.35;3.50;;;;;;;15.64;84.03;99598.84;5033998;28;20059;-88
2023/10/07 01:46:27;;;;;;;7.15;3.65;;;;;;;15.70;84.16;99608.94;5052113;28;20163;-88
2023/10/07 01:48:57;;;;;;;7.50;3.80;;;;;;;15.50;84.08;99570.06;5033993;28;20484;-88
2023/10/07 01:51:27;;;;;;;5.50;3.70;;;;;;;15.62;84.30;99577.09;5029105;28;20085;-88
2023/10/07 01:53:56;;;;;;;5.45;3.22;;;;;;;15.68;84.29;99590.69;5012992;28;20037;-89
2023/10/07 01:56:29;;;;;;;6.10;3.60;;;;;;;15.70;84.29;99572.19;5029144;28;20129;-89
2023/10/07 01:58:57;;;;;;;4.22;3.20;;;;;;;15.75;84.61;99579.75;5012905;28;20432;-89
2023/10/07 02:01:28;;;;;;;5.60;3.20;;;;;;;15.54;84.35;99540.84;5012704;28;20037;-88
2023/10/07 02:03:57;;;;;;;4.90;3.25;;;;;;;15.69;84.94;99573.97;5012861;28;20394;-89
2023/10/07 02:06:24;;;;;;;6.30;3.28;;;;;;;15.74;84.86;99570.19;5012524;28;20567;-89
2023/10/07 02:08:50;;;;;;;6.28;3.33;;;;;;;15.79;84.80;99579.41;5012543;28;20448;-88
2023/10/07 02:11:24;;;;;;;5.35;3.30;;;;;;;15.61;85.08;99546.53;5012550;28;20600;-88
2023/10/07 02:13:51;;;;;;;6.47;3.97;;;;;;;15.79;85.10;99571.53;5012792;28;20120;-88
2023/10/07 02:16:17;;;;;;;6.85;3.55;;;;;;;15.80;84.94;99562.75;5012454;28;20040;-88
2023/10/07 02:18:44;;;;;;;6.03;3.67;;;;;;;15.72;85.09;99554.56;5012721;28;20026;-89
2023/10/07 02:21:16;;;;;;;6.43;3.70;;;;;;;15.73;85.28;99558.84;5012625;28;20095;-88
2023/10/07 02:23:43;;;;;;;;;;;;;;;15.81;85.71;99576.72;5055634;28;20029;-89
2023/10/07 02:28:44;;;;;;;6.38;3.63;;;;;;;15.76;85.89;99556.03;5055497;28;20033;-90
2023/10/07 02:31:18;;;;;;;5.82;3.83;;;;;;;15.65;86.22;99546.25;5037610;28;20064;-88
2023/10/07 02:33:51;;;;;;;5.95;3.20;;;;;;;15.55;86.34;99531.19;5037722;28;20126;-88
2023/10/07 02:36:36;;;;;;;8.10;3.85;;;;;;;15.72;86.46;99551.94;5012966;28;20041;-88
2023/10/07 02:39:26;;;;;;;7.57;3.67;;;;;;;15.77;86.54;99556.84;4996716;28;20036;-89
2023/10/07 02:41:53;;;;;;;5.72;3.63;;;;;;;15.72;86.99;99554.56;4996958;28;20044;-89
2023/10/07 02:44:27;;;;;;;6.32;3.30;;;;;;;15.66;86.98;99534.78;5012912;28;20033;-89
2023/10/07 02:46:53;;;;;;;5.50;3.13;;;;;;;15.64;86.76;99528.81;4996591;28;20042;-89
2023/10/07 02:49:22;;;;;;;7.07;3.38;;;;;;;15.74;87.25;99533.44;4996391;28;20036;-89
2023/10/07 02:51:57;;;;;;;6.70;3.70;;;;;;;15.77;87.05;99538.47;4996474;28;20453;-88
2023/10/07 02:54:30;;;;;;;5.70;3.17;;;;;;;15.54;87.22;99501.47;4996338;28;20497;-88
2023/10/07 02:57:07;;;;;;;6.00;3.42;;;;;;;15.75;87.28;99533.31;5012811;28;20041;-88
2023/10/07 02:59:42;;;;;;;6.97;3.72;;;;;;;15.82;87.13;99542.44;4996451;28;20366;-89
2023/10/07 03:05:13;;;;;;;6.32;3.58;;;;;;;15.85;87.36;99531.75;5012785;28;20501;-88
2023/10/07 03:07:41;;;;;;;5.93;3.38;;;;;;;15.66;87.35;99498.03;4998742;28;20038;-88
2023/10/07 03:10:17;;;;;;;5.70;3.38;;;;;;;15.82;87.47;99529.31;4992429;28;20432;-89
2023/10/07 03:12:56;;;;;;;7.07;3.30;;;;;;;15.84;87.10;99535.28;4992894;28;20038;-88
2023/10/07 03:18:03;;;;;;;5.47;3.40;;;;;;;15.88;87.51;99542.00;4992981;28;20514;-88
2023/10/07 03:20:31;;;;;;;5.72;3.33;;;;;;;15.77;87.38;99522.72;4992386;28;20053;-88
2023/10/07 03:23:25;;;;;;;7.32;3.53;;;;;;;15.68;87.59;99517.16;4976508;28;20585;-88
2023/10/07 03:28:20;;;;;;;7.53;3.58;;;;;;;15.80;87.76;99517.22;4992529;28;20046;-89
2023/10/07 03:30:51;;;;;;;5.57;3.50;;;;;;;15.68;87.86;99503.19;4992596;28;20054;-88
2023/10/07 03:33:43;;;;;;;5.85;3.47;;;;;;;15.80;87.77;99528.59;4991844;28;20038;-88
2023/10/07 03:36:13;;;;;;;4.82;3.20;;;;;;;15.70;88.09;99511.78;4992514;28;20030;-88
2023/10/07 03:38:38;;;;;;;5.53;3.38;;;;;;;15.84;88.12;99524.78;5002104;28;20096;-89
2023/10/07 03:41:09;;;;;;;6.95;3.85;;;;;;;15.75;87.99;99504.44;5005711;28;20038;-89
2023/10/07 03:43:35;;;;;;;7.20;3.67;;;;;;;15.94;87.83;99535.50;5034228;28;20083;-88
2023/10/07 03:46:00;;;;;;;5.85;3.63;;;;;;;15.91;87.71;99518.16;5034440;28;20034;-88
2023/10/07 03:48:31;;;;;;;4.65;3.28;;;;;;;15.95;87.57;99524.03;5034013;28;20026;-88
2023/10/07 03:51:07;;;;;;;5.25;3.25;;;;;;;15.83;87.30;99512.59;5016462;28;20026;-88
2023/10/07 03:53:44;;;;;;;6.20;4.00;;;;;;;15.87;87.38;99514.06;5016500;28;20030;-88
2023/10/07 03:56:14;;;;;;;5.90;3.47;;;;;;;15.52;87.45;99455.31;5016062;28;20044;-89
2023/10/07 03:58:43;;;;;;;5.05;3.67;;;;;;;15.84;87.28;99488.00;5016422;28;20033;-88
2023/10/07 04:01:22;;;;;;;6.80;4.13;;;;;;;16.05;87.24;99516.34;5015990;28;20103;-88
2023/10/07 04:03:49;;;;;;;6.32;3.67;;;;;;;16.10;87.01;99522.13;5016232;28;20168;-88
2023/10/07 04:06:19;;;;;;;5.68;3.85;;;;;;;16.11;87.20;99529.88;5015834;28;20029;-89
2023/10/07 04:08:56;;;;;;;6.10;3.63;;;;;;;16.10;87.25;99528.22;5015735;28;20056;-88
2023/10/07 04:11:28;;;;;;;5.00;3.45;;;;;;;15.77;87.11;99463.16;5015919;28;20084;-88
2023/10/07 04:13:55;;;;;;;6.07;3.78;;;;;;;16.13;87.70;99524.50;5033990;28;20037;-88
2023/10/07 04:16:24;;;;;;;6.88;3.75;;;;;;;16.03;87.76;99507.75;5015674;28;20452;-88
2023/10/07 04:21:40;;;;;;;6.72;4.05;;;;;;;16.06;87.99;99516.25;4953124;29;20126;-88
2023/10/07 04:24:12;;;;;;;3.92;3.15;;;;;;;16.11;88.46;99524.63;4936944;29;20566;-88
2023/10/07 04:26:39;;;;;;;6.28;3.20;;;;;;;15.91;88.99;99485.81;4936836;29;20039;-89
2023/10/07 04:29:14;;;;;;;7.53;3.65;;;;;;;16.13;89.21;99516.63;4936805;29;20035;-89
2023/10/07 04:31:47;;;;;;;6.50;3.67;;;;;;;16.03;89.48;99502.50;4952953;29;20042;-89
2023/10/07 04:34:15;;;;;;;6.90;3.70;;;;;;;16.05;89.73;99505.81;4952452;29;20529;-88
2023/10/07 04:40:27;;;;;;;4.82;3.33;;;;;;;16.12;90.41;99504.44;4952597;29;20399;-88
2023/10/07 04:42:37;;;;;;;5.93;3.40;;;;;;;16.12;90.85;99517.59;4952487;29;20031;-88
2023/10/07 04:47:57;;;;;;;5.80;3.53;;;;;;;15.91;91.45;99481.38;4952719;29;20501;-88
2023/10/07 04:50:36;;;;;;;5.03;3.00;;;;;;;16.02;91.72;99488.53;4936183;29;20042;-87
2023/10/07 04:53:03;;;;;;;4.53;3.35;;;;;;;16.13;92.01;99514.00;4936690;29;20411;-88
2023/10/07 04:55:29;;;;;;;7.03;3.60;;;;;;;15.96;92.24;99475.81;4936091;29;20107;-88
2023/10/07 05:02:59;;;;;;;6.80;3.08;;;;;;;16.11;92.72;99498.34;5032765;28;20045;-88
2023/10/07 05:05:30;;;;;;;5.95;3.40;;;;;;;15.98;93.34;99479.19;5014972;28;20029;-89
2023/10/07 05:08:08;;;;;;;3.75;3.10;;;;;;;16.14;93.34;99502.56;5015283;28;20484;-89
2023/10/07 05:10:38;;;;;;;4.68;2.88;;;;;;;16.13;93.41;99499.06;5015282;28;20464;-89
2023/10/07 05:13:06;;;;;;;6.30;3.53;;;;;;;16.11;93.81;99503.63;5015046;28;20026;-88
2023/10/07 05:15:33;;;;;;;6.03;3.67;;;;;;;15.96;93.71;99474.00;5014945;28;20060;-89
2023/10/07 05:18:01;;;;;;;4.53;3.08;;;;;;;16.12;94.01;99496.56;5015034;28;20018;-89
2023/10/07 05:20:27;;;;;;;3.85;2.97;;;;;;;16.00;94.01;99485.16;5015195;28;20096;-89
2023/10/07 05:22:53;;;;;;;7.18;3.33;;;;;;;16.16;93.97;99506.75;5014961;28;20022;-88
2023/10/07 05:25:21;;;;;;;7.13;4.03;;;;;;;16.03;93.73;99470.97;5032536;28;20485;-89
2023/10/07 05:27:47;;;;;;;4.72;3.42;;;;;;;16.13;93.68;99483.31;5032416;28;20076;-89
2023/10/07 05:30:15;;;;;;;5.70;3.58;;;;;;;16.23;93.60;99496.66;5014378;28;20041;-89
2023/10/07 05:32:41;;;;;;;3.78;2.88;;;;;;;16.20;93.33;99489.81;5014577;28;20033;-89
2023/10/07 05:35:08;;;;;;;8.68;3.38;;;;;;;16.18;93.05;99486.47;5014547;28;20477;-89
2023/10/07 05:37:33;;;;;;;5.15;3.38;;;;;;;16.18;92.69;99480.34;5014332;28;20018;-88
2023/10/07 05:39:59;;;;;;;6.00;3.42;;;;;;;16.22;92.47;99492.31;5014405;28;20413;-89
2023/10/07 05:42:25;;;;;;;7.60;3.35;;;;;;;16.29;92.56;99497.97;5009320;28;20520;-89
2023/10/07 05:44:52;;;;;;;6.30;3.65;;;;;;;16.11;92.15;99474.72;4993510;28;20132;-88
2023/10/07 05:47:18;;;;;;;14.63;3.83;;;;;;;16.15;92.33;99476.16;5009641;28;20124;-89
2023/10/07 05:49:43;;;;;;;5.22;3.33;;;;;;;16.14;92.38;99473.66;5009971;28;20033;-89
2023/10/07 05:52:09;;;;;;;5.18;3.10;;;;;;;16.09;92.51;99460.84;5009785;28;20383;-89
2023/10/07 05:54:34;;;;;;;5.53;3.28;;;;;;;16.15;92.44;99478.81;4993042;28;20488;-89
2023/10/07 05:57:04;;;;;;;7.53;3.38;;;;;;;16.16;92.39;99474.38;5009381;28;20049;-89
2023/10/07 05:59:33;;;;;;;6.68;3.47;;;;;;;16.05;92.16;99472.50;4993132;28;20029;-88
2023/10/07 06:02:01;;;;;;;6.15;3.20;;;;;;;16.15;92.28;99494.56;5009798;28;20037;-90
2023/10/07 06:04:28;;;;;;;6.65;3.70;;;;;;;16.15;92.44;99496.34;4993071;28;20036;-89
2023/10/07 06:06:53;;;;;;;6.53;3.25;;;;;;;16.09;92.39;99484.47;4993157;28;20040;-89
2023/10/07 06:09:21;;;;;;;8.65;3.70;;;;;;;16.33;92.49;99516.03;4992849;28;20453;-89
2023/10/07 06:11:48;;;;;;;4.15;3.17;;;;;;;16.42;91.98;99515.38;4993202;28;20034;-89
2023/10/07 06:14:14;;;;;;;3.92;3.00;;;;;;;16.38;91.84;99518.31;5013701;28;20044;-89
2023/10/07 06:16:40;;;;;;;5.25;3.58;;;;;;;16.48;91.88;99531.66;5013885;28;20033;-89
2023/10/07 06:19:07;;;;;;;5.70;3.05;;;;;;;16.37;92.21;99511.41;5013955;28;20176;-89
2023/10/07 06:21:32;;;;;;;5.47;3.45;;;;;;;16.46;92.26;99531.75;5031554;28;20024;-89
2023/10/07 06:23:58;;;;;;;4.78;3.70;;;;;;;16.26;92.55;99488.50;5013935;28;20029;-89
2023/10/07 06:26:25;;;;;;;3.90;2.95;;;;;;;16.44;92.43;99517.91;5031550;28;20033;-89
2023/10/07 06:28:50;;;;;;;5.40;3.63;;;;;;;16.05;92.27;99450.66;5014221;28;20061;-89
2023/10/07 06:31:22;;;;;;;5.65;4.00;;;;;;;16.42;92.75;99527.66;5031690;28;20100;-89
2023/10/07 06:36:40;;;;;;;4.97;3.38;;;;;;;16.48;93.02;99524.63;4989533;28;20034;-88
2023/10/07 06:39:07;;;;;;;5.78;3.25;;;;;;;16.74;92.80;99512.19;4973526;28;20201;-88
2023/10/07 06:41:34;;;;;;;5.85;3.40;;;;;;;16.96;91.40;99516.69;4973877;28;20106;-93
2023/10/07 06:44:20;;;;;;;6.20;3.45;;;;;;;17.09;91.10;99506.09;4974553;28;20030;-92
2023/10/07 06:46:46;;;;;;;6.20;3.38;;;;;;;17.13;90.51;99502.25;4970805;28;20043;-92
2023/10/07 06:49:17;;;;;;;6.32;3.83;;;;;;;17.32;90.14;99509.56;4952395;28;20042;-92
2023/10/07 06:52:37;;;;;;;5.40;3.35;;;;;;;17.48;89.47;99498.72;4954773;28;20129;-93
2023/10/07 06:55:45;;;;;;;8.32;3.70;;;;;;;17.65;89.00;99504.34;4917119;29;20044;-94
2023/10/07 06:58:14;;;;;;;5.88;3.80;;;;;;;17.61;88.93;99502.94;4839247;29;20485;-92
2023/10/07 07:00:49;;;;;;;5.28;3.50;;;;;;;18.12;88.27;99520.88;4838837;29;20050;-93
2023/10/07 07:03:20;;;;;;;6.35;3.33;;;;;;;18.49;86.27;99512.59;4838909;29;20313;-92
2023/10/07 07:05:46;;;;;;;6.18;3.75;;;;;;;18.59;85.01;99515.34;4824243;29;20522;-91
2023/10/07 07:08:14;;;;;;;5.15;2.83;;;;;;;18.57;85.04;99522.53;4805092;29;20061;-91
2023/10/07 07:10:41;;;;;;;6.38;4.22;;;;;;;18.40;85.25;99497.53;4807609;29;20046;-88
2023/10/07 07:13:15;;;;;;;4.57;3.28;;;;;;;18.54;84.80;99515.72;4814191;29;20451;-87
2023/10/07 07:15:45;;;;;;;7.90;3.80;;;;;;;18.23;84.70;99459.38;4840927;29;20084;-87
2023/10/07 07:20:48;;;;;;;5.72;3.65;;;;;;;18.90;84.21;99524.22;4841122;29;20038;-87
2023/10/07 07:23:20;;;;;;;4.97;3.30;;;;;;;19.26;83.11;99532.69;4841449;29;20046;-87
2023/10/07 07:25:53;;;;;;;5.40;3.88;;;;;;;19.12;82.54;99489.78;4852223;29;20070;-87
2023/10/07 07:28:19;;;;;;;5.72;3.47;;;;;;;19.25;81.99;99501.94;4864458;29;20064;-87
2023/10/07 07:30:45;;;;;;;5.75;3.55;;;;;;;19.35;82.09;99535.38;4896689;29;20051;-88
2023/10/07 07:33:15;;;;;;;7.13;3.67;;;;;;;19.18;81.88;99512.22;4929489;29;20047;-87
2023/10/07 07:35:51;;;;;;;6.13;3.97;;;;;;;19.08;82.09;99517.41;5017160;28;20034;-88
2023/10/07 07:38:29;;;;;;;6.53;3.35;;;;;;;19.07;82.74;99513.09;5034576;28;20061;-87
2023/10/07 07:41:06;;;;;;;4.30;3.00;;;;;;;19.12;82.60;99518.00;5016500;28;20017;-87
2023/10/07 07:43:36;;;;;;;7.13;3.15;;;;;;;19.11;82.72;99501.31;5016220;28;20083;-87
2023/10/07 07:46:17;;;;;;;6.88;3.72;;;;;;;19.23;82.53;99525.03;5016381;28;20064;-87
2023/10/07 07:48:47;;;;;;;8.73;4.72;;;;;;;18.88;82.44;99495.34;5034084;28;20022;-87
2023/10/07 07:51:20;;;;;;;6.82;3.05;;;;;;;18.88;82.97;99497.97;5016314;28;20025;-87
2023/10/07 07:53:46;;;;;;;10.50;4.20;;;;;;;18.82;83.44;99518.75;5033788;28;20037;-87
2023/10/07 07:56:15;;;;;;;6.95;3.40;;;;;;;18.47;83.37;99474.16;5033990;28;20393;-87
2023/10/07 07:58:47;;;;;;;5.80;3.65;;;;;;;18.68;83.88;99504.03;5033876;28;20037;-86
2023/10/07 08:01:17;;;;;;;5.65;3.38;;;;;;;18.90;84.01;99525.06;5041088;28;20029;-87
2023/10/07 08:03:43;;;;;;;5.82;3.67;;;;;;;18.84;83.75;99504.47;5050245;28;20037;-86
2023/10/07 08:06:13;;;;;;;5.32;3.53;;;;;;;18.74;83.53;99471.88;5035415;28;20500;-87
2023/10/07 08:08:39;;;;;;;4.32;3.42;;;;;;;19.09;83.30;99523.56;5052893;28;20060;-87
2023/10/07 08:11:05;;;;;;;4.43;3.10;;;;;;;19.07;83.40;99509.63;5038046;28;20032;-87
2023/10/07 08:13:31;;;;;;;6.50;3.42;;;;;;;19.24;83.39;99509.03;5034913;28;20029;-86
2023/10/07 08:15:58;;;;;;;7.10;3.70;;;;;;;19.36;82.74;99491.31;5052171;28;20017;-87
2023/10/07 08:18:28;;;;;;;5.43;3.25;;;;;;;19.66;82.16;99519.56;5053279;28;20025;-87
2023/10/07 08:21:13;;;;;;;5.07;3.03;;;;;;;19.66;82.00;99504.56;5034623;28;20400;-87
2023/10/07 08:23:40;;;;;;;4.97;3.30;;;;;;;19.76;81.92;99522.25;5053414;28;20463;-86
2023/10/07 08:26:13;;;;;;;5.97;3.60;;;;;;;19.58;81.83;99491.13;5053538;28;20055;-87
2023/10/07 08:28:45;;;;;;;5.85;3.75;;;;;;;19.71;81.81;99511.25;5035218;28;20491;-86
2023/10/07 08:31:13;;;;;;;6.10;4.40;;;;;;;19.65;82.33;99512.63;5035217;28;20044;-86
2023/10/07 08:33:40;;;;;;;10.88;3.63;;;;;;;19.75;82.05;99512.66;5053001;28;20469;-86
2023/10/07 08:36:07;;;;;;;5.25;3.50;;;;;;;19.47;81.82;99472.75;5035412;28;20028;-86
2023/10/07 08:38:50;;;;;;;5.57;3.28;;;;;;;19.82;82.10;99519.91;5052999;28;20029;-87
2023/10/07 08:41:18;;;;;;;6.15;2.97;;;;;;;19.92;82.50;99526.06;5035193;28;20431;-87
2023/10/07 08:43:45;;;;;;;7.45;3.58;;;;;;;19.79;82.51;99519.34;5052731;28;20024;-86
2023/10/07 08:46:16;;;;;;;6.40;3.47;;;;;;;19.79;82.93;99501.69;5035230;28;20488;-87
2023/10/07 08:48:49;;;;;;;6.03;2.83;;;;;;;19.80;82.79;99508.63;5052811;28;20476;-87
2023/10/07 08:51:23;;;;;;;5.10;3.33;;;;;;;19.63;83.14;99494.25;5052961;28;20029;-87
2023/10/07 08:53:51;;;;;;;8.98;3.72;;;;;;;19.64;83.56;99509.16;5034762;28;20033;-85
2023/10/07 08:56:19;;;;;;;7.03;3.60;;;;;;;19.65;83.58;99520.53;5052528;28;20136;-86
2023/10/07 08:58:49;;;;;;;7.30;3.17;;;;;;;19.40;84.06;99487.44;5052796;28;20036;-87
2023/10/07 09:01:19;;;;;;;8.10;3.42;;;;;;;19.63;84.15;99514.53;5034922;28;20032;-86
2023/10/07 09:03:49;;;;;;;6.57;3.30;;;;;;;19.68;84.07;99497.34;5052542;28;20025;-86
2023/10/07 09:06:16;;;;;;;6.35;3.40;;;;;;;19.68;83.77;99483.28;5052544;28;20104;-86
2023/10/07 09:08:43;;;;;;;6.70;3.55;;;;;;;19.71;83.28;99459.22;5034071;28;20088;-86
2023/10/07 09:11:13;;;;;;;7.80;3.10;;;;;;;20.02;82.63;99470.59;5034204;28;20083;-86
2023/10/07 09:13:39;;;;;;;6.00;3.50;;;;;;;20.26;82.07;99486.06;5034129;28;20040;-89
2023/10/07 09:16:07;;;;;;;5.18;2.95;;;;;;;20.40;81.84;99506.00;5052464;28;20032;-86
2023/10/07 09:18:39;;;;;;;7.72;3.85;;;;;;;20.41;81.31;99503.22;5052115;28;20053;-86
2023/10/07 09:21:22;;;;;;;9.25;3.63;;;;;;;20.43;81.52;99519.78;5052229;28;20017;-87
2023/10/07 09:23:59;;;;;;;8.45;3.45;;;;;;;20.27;81.86;99522.13;5034320;28;20033;-86
2023/10/07 09:26:34;;;;;;;5.22;3.40;;;;;;;20.14;82.66;99510.94;5051967;28;20025;-86
2023/10/07 09:29:21;;;;;;;11.43;3.70;;;;;;;19.96;82.99;99513.41;5052377;28;20045;-86
2023/10/07 09:32:04;;;;;;;4.72;3.10;;;;;;;19.98;83.68;99542.38;5033336;28;20039;-87
2023/10/07 09:34:41;;;;;;;7.85;3.15;;;;;;;19.68;83.71;99472.72;5034079;28;20036;-89
2023/10/07 09:37:13;;;;;;;5.72;3.50;;;;;;;19.80;82.85;99519.19;5034324;28;20039;-85
2023/10/07 09:39:44;;;;;;;11.73;4.40;;;;;;;19.81;83.69;99535.91;5051770;28;20025;-85
2023/10/07 09:42:26;;;;;;;6.47;3.20;;;;;;;19.55;83.86;99520.47;5052059;28;20311;-85
2023/10/07 09:44:54;;;;;;;;;;;;;;;19.58;84.47;99535.22;5052287;28;20021;-85
2023/10/07 09:47:21;;;;;;;7.13;2.95;;;;;;;19.26;84.50;99514.22;5034058;28;19912;-85
2023/10/07 09:49:47;;;;;;;6.60;3.70;;;;;;;19.32;84.80;99525.06;5051731;28;20029;-85
2023/10/07 09:52:16;;;;;;;7.10;3.88;;;;;;;19.30;85.19;99520.88;5033406;28;20412;-86
2023/10/07 09:55:19;;;;;;;5.90;3.20;;;;;;;19.43;85.42;99547.94;5051558;28;20025;-85
2023/10/07 09:58:06;;;;;;;6.07;3.65;;;;;;;19.46;85.54;99550.31;5032814;28;20033;-85
2023/10/07 10:01:04;;;;;;;5.32;3.22;;;;;;;19.37;85.89;99548.44;5051585;28;20162;-85
2023/10/07 10:03:51;;;;;;;3.95;2.90;;;;;;;19.36;85.89;99552.06;5052125;28;20029;-93
2023/10/07 10:07:13;;;;;;;10.35;3.70;;;;;;;19.42;86.00;99554.16;5034147;28;20033;-93
2023/10/07 10:10:05;;;;;;;;;;;;;;;19.43;86.25;99564.63;4990287;28;20069;-87
2023/10/07 10:13:03;;;;;;;5.57;3.38;;;;;;;19.38;86.35;99560.66;4989745;28;20573;-87
2023/10/07 10:18:02;;;;;;;4.53;3.20;;;;;;;19.19;86.98;99542.91;4990059;28;20038;-88
2023/10/07 10:20:42;;;;;;;6.47;3.85;;;;;;;19.06;86.91;99532.56;4973640;28;20406;-88
2023/10/07 10:23:18;;;;;;;6.72;4.00;;;;;;;19.14;87.07;99563.59;4973724;28;20044;-88
2023/10/07 10:26:33;;;;;;;4.88;3.50;;;;;;;19.11;87.53;99551.47;4989891;28;20133;-93
2023/10/07 10:33:25;;;;;;;6.45;3.95;;;;;;;19.02;87.57;99551.41;4839189;29;20057;-91
2023/10/07 10:36:12;;;;;;;7.15;4.00;;;;;;;19.02;87.90;99556.69;4820366;29;20034;-90
2023/10/07 10:38:38;;;;;;;7.20;3.50;;;;;;;19.03;88.46;99551.28;4820157;29;20042;-90
2023/10/07 10:44:39;;;;;;;5.30;3.58;;;;;;;19.18;88.20;99547.38;4786439;29;20069;-91
2023/10/07 10:47:46;;;;;;;7.32;3.70;;;;;;;19.24;87.72;99535.44;4792058;29;20112;-95
2023/10/07 10:50:16;;;;;;;13.93;7.65;;;;;;;19.31;88.06;99531.31;4722063;30;20053;-92
2023/10/07 10:52:43;;;;;;;10.25;3.40;;;;;;;19.30;87.89;99536.72;4725814;30;20399;-92
2023/10/07 10:55:09;;;;;;;6.40;3.78;;;;;;;19.48;87.87;99539.63;4727394;30;20059;-93
2023/10/07 10:58:22;;;;;;;6.85;4.25;;;;;;;19.50;87.60;99506.81;4749473;30;20044;-94
2023/10/07 11:01:05;;;;;;;6.60;3.70;;;;;;;19.53;86.48;99511.84;4712672;30;20044;-89
2023/10/07 11:03:32;;;;;;;11.32;5.28;;;;;;;19.41;86.56;99474.09;4715809;30;20068;-89
2023/10/07 11:05:57;;;;;;;11.73;5.35;;;;;;;19.31;86.82;99467.94;4733528;30;20045;-88
2023/10/07 11:08:25;;;;;;;14.90;6.50;;;;;;;19.65;86.89;99523.19;4699944;30;20103;-88
2023/10/07 11:10:58;;;;;;;9.05;4.57;;;;;;;19.65;86.61;99509.97;4732126;30;20056;-89
2023/10/07 11:13:24;;;;;;;10.18;4.80;;;;;;;19.41;86.29;99460.88;4733165;30;20065;-89
2023/10/07 11:16:18;;;;;;;7.70;4.93;;;;;;;19.72;86.75;99507.63;4764056;30;20142;-90
2023/10/07 11:18:46;;;;;;;7.38;4.70;;;;;;;19.81;86.95;99510.31;4768151;30;20055;-89
2023/10/07 11:21:15;;;;;;;15.98;6.20;;;;;;;19.68;86.84;99507.91;4762836;30;20411;-89
2023/10/07 11:23:49;;;;;;;6.13;4.05;;;;;;;19.46;86.75;99494.81;4801996;29;20039;-89
2023/10/07 11:26:17;;;;;;;10.60;5.72;;;;;;;19.41;87.34;99512.88;4789134;29;20115;-90
2023/10/07 11:28:43;;;;;;;8.70;4.18;;;;;;;19.28;88.47;99507.81;4804389;29;20448;-88
2023/10/07 11:31:08;;;;;;;5.28;3.50;;;;;;;19.14;88.83;99492.31;4830112;29;20053;-88
2023/10/07 11:33:36;;;;;;;6.72;3.45;;;;;;;19.25;89.02;99513.34;4896459;29;20107;-88
2023/10/07 11:36:06;;;;;;;5.95;3.60;;;;;;;19.18;89.56;99515.69;4899062;29;20032;-88
2023/10/07 11:38:31;;;;;;;11.93;7.78;;;;;;;19.15;89.95;99520.38;4950724;28;20483;-88
2023/10/07 11:40:57;;;;;;;8.50;4.90;;;;;;;19.07;89.64;99510.47;5024411;28;20048;-88
2023/10/07 11:43:23;;;;;;;12.48;6.75;;;;;;;18.98;89.98;99482.22;5036294;28;20061;-88
2023/10/07 11:45:50;;;;;;;11.70;6.53;;;;;;;19.01;90.38;99487.22;5035596;28;20020;-88
2023/10/07 11:48:17;;;;;;;7.20;5.20;;;;;;;19.07;89.96;99501.72;5036046;28;20036;-87
2023/10/07 11:50:46;;;;;;;16.40;7.60;;;;;;;19.09;89.86;99503.25;5035759;28;20033;-88
2023/10/07 11:53:11;;;;;;;10.60;6.55;;;;;;;19.14;90.11;99505.50;5053480;28;20036;-88
2023/10/07 11:55:37;;;;;;;13.52;7.03;;;;;;;19.16;90.17;99493.84;5034856;28;20393;-88
2023/10/07 11:58:03;;;;;;;16.33;8.48;;;;;;;19.17;90.34;99482.34;5036242;28;20035;-87
2023/10/07 12:00:34;;;;;;;7.57;4.90;;;;;;;19.32;90.06;99482.81;5054059;28;20504;-87
2023/10/07 12:03:01;;;;;;;7.85;4.50;;;;;;;19.47;89.63;99491.25;5053992;28;20037;-88
2023/10/07 12:05:27;;;;;;;7.10;4.45;;;;;;;19.34;89.69;99454.50;5036024;28;20029;-88
2023/10/07 12:07:59;;;;;;;8.82;4.65;;;;;;;19.49;89.30;99485.81;5035268;28;20112;-87
2023/10/07 12:10:25;;;;;;;6.85;4.55;;;;;;;19.59;89.00;99498.13;5036129;28;20075;-88
2023/10/07 12:12:52;;;;;;;7.45;3.78;;;;;;;19.42;89.21;99480.22;5035671;28;20025;-88
2023/10/07 12:15:17;;;;;;;7.03;4.25;;;;;;;19.56;89.84;99508.09;5035739;28;20120;-88
2023/10/07 12:17:48;;;;;;;6.05;4.45;;;;;;;19.20;89.78;99449.53;5053373;28;20108;-88
2023/10/07 12:20:15;;;;;;;10.52;5.20;;;;;;;19.51;89.84;99495.28;5053438;28;20025;-88
2023/10/07 12:22:42;;;;;;;9.43;4.88;;;;;;;19.54;90.02;99504.75;5035446;28;20039;-89
2023/10/07 12:25:16;;;;;;;7.97;4.65;;;;;;;19.41;90.37;99487.31;5035565;28;20077;-88
2023/10/07 12:27:48;;;;;;;5.57;4.15;;;;;;;19.43;90.49;99498.59;5053276;28;20021;-88
2023/10/07 12:30:20;;;;;;;5.05;3.67;;;;;;;19.38;90.92;99490.22;5030611;28;20067;-89
2023/10/07 12:32:48;;;;;;;8.40;4.45;;;;;;;19.29;90.90;99469.88;5028962;28;20464;-88
2023/10/07 12:35:15;;;;;;;7.50;4.63;;;;;;;19.27;91.52;99474.47;5053051;28;20472;-87
2023/10/07 12:37:48;;;;;;;6.30;4.20;;;;;;;19.24;91.74;99481.78;5047166;28;20032;-88